Terminal Aerodrome Forecast
Issued by NWS Corpus Christi, TX

Home | Current Version | Previous Version | Text Only | Print | Product List | Glossary On
Versions: 1 2 3 4 5 6 7 8 9 10 11 12 13 14
000
FTUS44 KCRP 011100
TAFCRP
TAF
KCRP 011129Z 0112/0212 16005KT P6SM SCT015
      TEMPO 0112/0113 5SM BR BKN015
     FM011400 16009KT P6SM SCT025
     FM011800 14014G21KT P6SM SCT040 SCT100
     FM020100 13012KT P6SM SCT020
     FM020800 14009KT P6SM BKN015=

USA.gov is the U.S. government's official web portal to all federal, state and local government web resources and services.